sensor_id;sensor_type;location;lat;lon;timestamp;temperature;humidity
41756;DHT22;27435;48.480;9.258;2022-10-15T00:01:04;14.60;99.00
41756;DHT22;27435;48.480;9.258;2022-10-15T00:03:30;14.70;99.00
41756;DHT22;27435;48.480;9.258;2022-10-15T00:05:56;14.70;99.00
41756;DHT22;27435;48.480;9.258;2022-10-15T00:08:21;14.70;99.00
41756;DHT22;27435;48.480;9.258;2022-10-15T00:10:47;14.70;99.00
41756;DHT22;27435;48.480;9.258;2022-10-15T00:13:13;14.70;99.00
41756;DHT22;27435;48.480;9.258;2022-10-15T00:15:38;14.80;99.00
41756;DHT22;27435;48.480;9.258;2022-10-15T00:18:04;14.70;99.00
41756;DHT22;27435;48.480;9.258;2022-10-15T00:20:29;14.80;99.00
41756;DHT22;27435;48.480;9.258;2022-10-15T00:22:56;14.80;99.00
41756;DHT22;27435;48.480;9.258;2022-10-15T00:25:21;14.80;99.00
41756;DHT22;27435;48.480;9.258;2022-10-15T00:27:47;14.80;99.00
41756;DHT22;27435;48.480;9.258;2022-10-15T00:30:13;14.80;99.00
41756;DHT22;27435;48.480;9.258;2022-10-15T00:32:38;14.80;99.00
41756;DHT22;27435;48.480;9.258;2022-10-15T00:35:04;14.80;99.00
41756;DHT22;27435;48.480;9.258;2022-10-15T00:37:30;14.80;99.00
41756;DHT22;27435;48.480;9.258;2022-10-15T00:39:55;14.90;99.00
41756;DHT22;27435;48.480;9.258;2022-10-15T00:42:21;14.80;99.00
41756;DHT22;27435;48.480;9.258;2022-10-15T00:44:58;14.90;99.00
41756;DHT22;27435;48.480;9.258;2022-10-15T00:47:56;14.80;99.00
41756;DHT22;27435;48.480;9.258;2022-10-15T00:50:24;14.90;99.00
41756;DHT22;27435;48.480;9.258;2022-10-15T00:53:21;14.90;99.00
41756;DHT22;27435;48.480;9.258;2022-10-15T00:55:47;14.80;99.00
41756;DHT22;27435;48.480;9.258;2022-10-15T00:58:17;14.80;99.00
41756;DHT22;27435;48.480;9.258;2022-10-15T01:00:46;14.90;99.00
41756;DHT22;27435;48.480;9.258;2022-10-15T01:03:12;14.80;99.00
41756;DHT22;27435;48.480;9.258;2022-10-15T01:05:38;14.90;99.00
41756;DHT22;27435;48.480;9.258;2022-10-15T01:08:04;15.00;99.00
41756;DHT22;27435;48.480;9.258;2022-10-15T01:13:33;15.00;99.00
41756;DHT22;27435;48.480;9.258;2022-10-15T01:16:23;15.00;99.00
41756;DHT22;27435;48.480;9.258;2022-10-15T01:19:05;15.00;99.00
41756;DHT22;27435;48.480;9.258;2022-10-15T01:27:51;15.00;99.00
41756;DHT22;27435;48.480;9.258;2022-10-15T01:30:22;14.80;99.00
41756;DHT22;27435;48.480;9.258;2022-10-15T01:33:24;14.90;99.00
41756;DHT22;27435;48.480;9.258;2022-10-15T01:35:53;14.90;99.00
41756;DHT22;27435;48.480;9.258;2022-10-15T01:38:26;15.00;99.00
41756;DHT22;27435;48.480;9.258;2022-10-15T01:40:57;15.00;99.00
41756;DHT22;27435;48.480;9.258;2022-10-15T01:43:34;15.00;99.00
41756;DHT22;27435;48.480;9.258;2022-10-15T01:46:05;15.00;99.00
41756;DHT22;27435;48.480;9.258;2022-10-15T01:48:34;15.00;99.00
41756;DHT22;27435;48.480;9.258;2022-10-15T01:51:04;15.00;99.00
41756;DHT22;27435;48.480;9.258;2022-10-15T01:53:30;15.10;99.00
41756;DHT22;27435;48.480;9.258;2022-10-15T01:56:12;15.20;99.00
41756;DHT22;27435;48.480;9.258;2022-10-15T01:58:41;15.20;99.00
41756;DHT22;27435;48.480;9.258;2022-10-15T02:01:07;15.20;99.00
41756;DHT22;27435;48.480;9.258;2022-10-15T02:03:52;15.20;99.00
41756;DHT22;27435;48.480;9.258;2022-10-15T02:12:03;15.10;99.00
41756;DHT22;27435;48.480;9.258;2022-10-15T02:14:59;15.20;99.00
41756;DHT22;27435;48.480;9.258;2022-10-15T02:17:55;15.10;99.00
41756;DHT22;27435;48.480;9.258;2022-10-15T02:20:23;15.20;99.00
41756;DHT22;27435;48.480;9.258;2022-10-15T02:22:59;15.30;99.00
41756;DHT22;27435;48.480;9.258;2022-10-15T02:25:27;15.40;99.00
41756;DHT22;27435;48.480;9.258;2022-10-15T02:27:55;15.40;99.00
41756;DHT22;27435;48.480;9.258;2022-10-15T02:30:22;15.40;99.00
41756;DHT22;27435;48.480;9.258;2022-10-15T02:32:51;15.40;99.00
41756;DHT22;27435;48.480;9.258;2022-10-15T02:35:19;15.50;99.00
41756;DHT22;27435;48.480;9.258;2022-10-15T02:37:48;15.60;99.00
41756;DHT22;27435;48.480;9.258;2022-10-15T02:40:14;15.60;99.00
41756;DHT22;27435;48.480;9.258;2022-10-15T02:42:40;15.60;99.00
41756;DHT22;27435;48.480;9.258;2022-10-15T02:45:06;15.60;99.00
41756;DHT22;27435;48.480;9.258;2022-10-15T02:47:32;15.60;99.00
41756;DHT22;27435;48.480;9.258;2022-10-15T02:49:58;15.60;99.00
41756;DHT22;27435;48.480;9.258;2022-10-15T02:52:23;15.60;99.00
41756;DHT22;27435;48.480;9.258;2022-10-15T02:54:49;15.50;99.00
41756;DHT22;27435;48.480;9.258;2022-10-15T02:57:14;15.50;99.00
41756;DHT22;27435;48.480;9.258;2022-10-15T02:59:40;15.60;99.00
41756;DHT22;27435;48.480;9.258;2022-10-15T03:02:07;15.50;99.00
41756;DHT22;27435;48.480;9.258;2022-10-15T03:04:32;15.50;99.00
41756;DHT22;27435;48.480;9.258;2022-10-15T03:06:58;15.40;99.00
41756;DHT22;27435;48.480;9.258;2022-10-15T03:09:24;15.40;99.00
41756;DHT22;27435;48.480;9.258;2022-10-15T03:11:49;15.40;99.00
41756;DHT22;27435;48.480;9.258;2022-10-15T03:14:15;15.40;99.00
41756;DHT22;27435;48.480;9.258;2022-10-15T03:16:40;15.50;99.00
41756;DHT22;27435;48.480;9.258;2022-10-15T03:19:06;15.50;99.00
41756;DHT22;27435;48.480;9.258;2022-10-15T03:21:32;15.50;99.00
41756;DHT22;27435;48.480;9.258;2022-10-15T03:23:58;15.50;99.00
41756;DHT22;27435;48.480;9.258;2022-10-15T03:26:24;15.40;99.00
41756;DHT22;27435;48.480;9.258;2022-10-15T03:28:50;15.40;99.00
41756;DHT22;27435;48.480;9.258;2022-10-15T03:31:15;15.30;99.00
41756;DHT22;27435;48.480;9.258;2022-10-15T03:33:41;15.30;99.00
41756;DHT22;27435;48.480;9.258;2022-10-15T03:36:07;15.30;99.00
41756;DHT22;27435;48.480;9.258;2022-10-15T03:38:33;15.20;99.00
41756;DHT22;27435;48.480;9.258;2022-10-15T03:40:59;15.10;99.00
41756;DHT22;27435;48.480;9.258;2022-10-15T03:43:24;15.10;99.00
41756;DHT22;27435;48.480;9.258;2022-10-15T03:45:51;15.10;99.00
41756;DHT22;27435;48.480;9.258;2022-10-15T03:48:16;15.20;99.00
41756;DHT22;27435;48.480;9.258;2022-10-15T03:50:42;15.20;99.00
41756;DHT22;27435;48.480;9.258;2022-10-15T03:53:08;15.20;99.00
41756;DHT22;27435;48.480;9.258;2022-10-15T03:55:33;15.20;99.00
41756;DHT22;27435;48.480;9.258;2022-10-15T03:57:59;15.20;99.00
41756;DHT22;27435;48.480;9.258;2022-10-15T04:00:26;15.20;99.00
41756;DHT22;27435;48.480;9.258;2022-10-15T04:02:52;15.10;99.00
41756;DHT22;27435;48.480;9.258;2022-10-15T04:05:18;15.10;99.00
41756;DHT22;27435;48.480;9.258;2022-10-15T04:07:44;15.10;99.00
41756;DHT22;27435;48.480;9.258;2022-10-15T04:10:10;15.10;99.00
41756;DHT22;27435;48.480;9.258;2022-10-15T04:12:35;15.00;99.00
41756;DHT22;27435;48.480;9.258;2022-10-15T04:15:01;15.10;99.00
41756;DHT22;27435;48.480;9.258;2022-10-15T04:17:26;15.10;99.00
41756;DHT22;27435;48.480;9.258;2022-10-15T04:19:52;15.10;99.00
41756;DHT22;27435;48.480;9.258;2022-10-15T04:22:18;15.20;99.00
41756;DHT22;27435;48.480;9.258;2022-10-15T04:24:43;15.20;99.00
41756;DHT22;27435;48.480;9.258;2022-10-15T04:27:11;15.10;99.00
41756;DHT22;27435;48.480;9.258;2022-10-15T04:29:36;15.20;99.00
41756;DHT22;27435;48.480;9.258;2022-10-15T04:32:02;15.20;99.00
41756;DHT22;27435;48.480;9.258;2022-10-15T04:34:28;15.30;99.00
41756;DHT22;27435;48.480;9.258;2022-10-15T04:36:53;15.20;99.00
41756;DHT22;27435;48.480;9.258;2022-10-15T04:39:19;15.20;99.00
41756;DHT22;27435;48.480;9.258;2022-10-15T04:41:44;15.20;99.00
41756;DHT22;27435;48.480;9.258;2022-10-15T04:44:10;15.30;99.00
41756;DHT22;27435;48.480;9.258;2022-10-15T04:46:36;15.20;99.00
41756;DHT22;27435;48.480;9.258;2022-10-15T04:49:02;15.20;99.00
41756;DHT22;27435;48.480;9.258;2022-10-15T04:51:27;15.30;99.00
41756;DHT22;27435;48.480;9.258;2022-10-15T04:53:54;15.20;99.00
41756;DHT22;27435;48.480;9.258;2022-10-15T04:56:20;15.20;99.00
41756;DHT22;27435;48.480;9.258;2022-10-15T04:58:47;15.30;99.00
41756;DHT22;27435;48.480;9.258;2022-10-15T05:01:16;15.30;99.00
41756;DHT22;27435;48.480;9.258;2022-10-15T05:03:43;15.30;99.00
41756;DHT22;27435;48.480;9.258;2022-10-15T05:06:11;15.20;99.00
41756;DHT22;27435;48.480;9.258;2022-10-15T05:08:38;15.20;99.00
41756;DHT22;27435;48.480;9.258;2022-10-15T05:11:15;15.20;99.00
41756;DHT22;27435;48.480;9.258;2022-10-15T05:13:42;15.10;99.00
41756;DHT22;27435;48.480;9.258;2022-10-15T05:16:19;15.10;99.00
41756;DHT22;27435;48.480;9.258;2022-10-15T05:18:47;15.00;99.00
41756;DHT22;27435;48.480;9.258;2022-10-15T05:21:14;15.10;99.00
41756;DHT22;27435;48.480;9.258;2022-10-15T05:23:40;15.00;99.00
41756;DHT22;27435;48.480;9.258;2022-10-15T05:26:07;15.00;99.00
41756;DHT22;27435;48.480;9.258;2022-10-15T05:28:35;15.00;99.00
41756;DHT22;27435;48.480;9.258;2022-10-15T05:31:11;15.10;99.00
41756;DHT22;27435;48.480;9.258;2022-10-15T05:33:37;15.10;99.00
41756;DHT22;27435;48.480;9.258;2022-10-15T05:36:15;15.00;99.00
41756;DHT22;27435;48.480;9.258;2022-10-15T05:38:42;15.00;99.00
41756;DHT22;27435;48.480;9.258;2022-10-15T05:41:08;15.00;99.00
41756;DHT22;27435;48.480;9.258;2022-10-15T05:43:34;15.20;99.00
41756;DHT22;27435;48.480;9.258;2022-10-15T05:46:00;15.10;99.00
41756;DHT22;27435;48.480;9.258;2022-10-15T05:48:26;15.00;99.00
41756;DHT22;27435;48.480;9.258;2022-10-15T05:50:51;15.20;99.00
41756;DHT22;27435;48.480;9.258;2022-10-15T05:53:17;15.20;99.00
41756;DHT22;27435;48.480;9.258;2022-10-15T05:55:43;15.20;99.00
41756;DHT22;27435;48.480;9.258;2022-10-15T05:58:09;15.10;99.00
41756;DHT22;27435;48.480;9.258;2022-10-15T06:00:34;15.10;99.00
41756;DHT22;27435;48.480;9.258;2022-10-15T06:03:00;15.10;99.00
41756;DHT22;27435;48.480;9.258;2022-10-15T06:05:26;15.10;99.00
41756;DHT22;27435;48.480;9.258;2022-10-15T06:07:51;15.10;99.00
41756;DHT22;27435;48.480;9.258;2022-10-15T06:10:17;15.10;99.00
41756;DHT22;27435;48.480;9.258;2022-10-15T06:12:48;15.00;99.00
41756;DHT22;27435;48.480;9.258;2022-10-15T06:15:14;15.00;99.00
41756;DHT22;27435;48.480;9.258;2022-10-15T06:17:40;15.00;99.00
41756;DHT22;27435;48.480;9.258;2022-10-15T06:20:06;15.00;99.00
41756;DHT22;27435;48.480;9.258;2022-10-15T06:22:32;15.00;99.00
41756;DHT22;27435;48.480;9.258;2022-10-15T06:24:57;15.00;99.00
41756;DHT22;27435;48.480;9.258;2022-10-15T06:27:23;15.00;99.00
41756;DHT22;27435;48.480;9.258;2022-10-15T06:29:48;14.90;99.00
41756;DHT22;27435;48.480;9.258;2022-10-15T06:32:14;15.00;99.00
41756;DHT22;27435;48.480;9.258;2022-10-15T06:34:39;15.00;99.00
41756;DHT22;27435;48.480;9.258;2022-10-15T06:37:05;15.00;99.00
41756;DHT22;27435;48.480;9.258;2022-10-15T06:39:31;15.00;99.00
41756;DHT22;27435;48.480;9.258;2022-10-15T06:41:56;15.10;99.00
41756;DHT22;27435;48.480;9.258;2022-10-15T06:44:22;15.10;99.00
41756;DHT22;27435;48.480;9.258;2022-10-15T06:46:47;15.10;99.00
41756;DHT22;27435;48.480;9.258;2022-10-15T06:49:13;15.20;99.00
41756;DHT22;27435;48.480;9.258;2022-10-15T06:51:39;15.30;99.00
41756;DHT22;27435;48.480;9.258;2022-10-15T06:54:04;15.30;99.00
41756;DHT22;27435;48.480;9.258;2022-10-15T06:56:30;15.30;99.00
41756;DHT22;27435;48.480;9.258;2022-10-15T06:58:55;15.40;99.00
41756;DHT22;27435;48.480;9.258;2022-10-15T07:01:21;15.50;99.00
41756;DHT22;27435;48.480;9.258;2022-10-15T07:03:50;15.50;99.00
41756;DHT22;27435;48.480;9.258;2022-10-15T07:06:16;15.50;99.00
41756;DHT22;27435;48.480;9.258;2022-10-15T07:08:41;15.50;99.00
41756;DHT22;27435;48.480;9.258;2022-10-15T07:11:08;15.50;99.00
41756;DHT22;27435;48.480;9.258;2022-10-15T07:13:33;15.50;99.00
41756;DHT22;27435;48.480;9.258;2022-10-15T07:16:07;15.50;99.00
41756;DHT22;27435;48.480;9.258;2022-10-15T07:18:33;15.50;99.00
41756;DHT22;27435;48.480;9.258;2022-10-15T07:21:00;15.50;99.00
41756;DHT22;27435;48.480;9.258;2022-10-15T07:23:25;15.50;99.00
41756;DHT22;27435;48.480;9.258;2022-10-15T07:25:51;15.50;99.00
41756;DHT22;27435;48.480;9.258;2022-10-15T07:28:17;15.50;99.00
41756;DHT22;27435;48.480;9.258;2022-10-15T07:30:42;15.50;99.00
41756;DHT22;27435;48.480;9.258;2022-10-15T07:33:08;15.50;99.00
41756;DHT22;27435;48.480;9.258;2022-10-15T07:35:36;15.50;99.00
41756;DHT22;27435;48.480;9.258;2022-10-15T07:38:02;15.50;99.00
41756;DHT22;27435;48.480;9.258;2022-10-15T07:40:28;15.50;99.00
41756;DHT22;27435;48.480;9.258;2022-10-15T07:42:58;15.60;99.00
41756;DHT22;27435;48.480;9.258;2022-10-15T07:45:25;15.60;99.00
41756;DHT22;27435;48.480;9.258;2022-10-15T07:47:51;15.60;99.00
41756;DHT22;27435;48.480;9.258;2022-10-15T07:50:17;15.60;99.00
41756;DHT22;27435;48.480;9.258;2022-10-15T07:52:43;15.50;99.00
41756;DHT22;27435;48.480;9.258;2022-10-15T07:55:09;15.50;99.00
41756;DHT22;27435;48.480;9.258;2022-10-15T07:57:35;15.40;99.00
41756;DHT22;27435;48.480;9.258;2022-10-15T08:00:01;15.50;99.00
41756;DHT22;27435;48.480;9.258;2022-10-15T08:02:28;15.60;99.00
41756;DHT22;27435;48.480;9.258;2022-10-15T08:04:53;15.80;99.00
41756;DHT22;27435;48.480;9.258;2022-10-15T08:07:19;15.80;99.00
41756;DHT22;27435;48.480;9.258;2022-10-15T08:09:44;15.80;99.00
41756;DHT22;27435;48.480;9.258;2022-10-15T08:12:10;15.90;99.00
41756;DHT22;27435;48.480;9.258;2022-10-15T08:14:36;15.90;99.00
41756;DHT22;27435;48.480;9.258;2022-10-15T08:17:05;16.00;99.00
41756;DHT22;27435;48.480;9.258;2022-10-15T08:19:31;16.00;99.00
41756;DHT22;27435;48.480;9.258;2022-10-15T08:21:57;16.20;99.00
41756;DHT22;27435;48.480;9.258;2022-10-15T08:24:23;16.40;99.00
41756;DHT22;27435;48.480;9.258;2022-10-15T08:26:48;16.40;99.00
41756;DHT22;27435;48.480;9.258;2022-10-15T08:29:14;16.50;99.00
41756;DHT22;27435;48.480;9.258;2022-10-15T08:31:41;16.70;99.00
41756;DHT22;27435;48.480;9.258;2022-10-15T08:34:06;16.80;99.00
41756;DHT22;27435;48.480;9.258;2022-10-15T08:36:32;16.80;99.00
41756;DHT22;27435;48.480;9.258;2022-10-15T08:38:58;16.90;99.00
41756;DHT22;27435;48.480;9.258;2022-10-15T08:41:46;17.10;99.00
41756;DHT22;27435;48.480;9.258;2022-10-15T08:47:25;17.30;99.00
41756;DHT22;27435;48.480;9.258;2022-10-15T08:49:57;17.20;99.00
41756;DHT22;27435;48.480;9.258;2022-10-15T08:54:59;17.60;99.00
41756;DHT22;27435;48.480;9.258;2022-10-15T09:00:19;17.80;99.00
41756;DHT22;27435;48.480;9.258;2022-10-15T09:11:00;17.80;99.00
41756;DHT22;27435;48.480;9.258;2022-10-15T09:13:39;17.90;99.00
41756;DHT22;27435;48.480;9.258;2022-10-15T09:18:37;18.10;99.00
41756;DHT22;27435;48.480;9.258;2022-10-15T09:21:05;18.10;99.00
41756;DHT22;27435;48.480;9.258;2022-10-15T09:23:34;18.10;99.00
41756;DHT22;27435;48.480;9.258;2022-10-15T09:29:22;17.90;99.00
41756;DHT22;27435;48.480;9.258;2022-10-15T09:32:10;17.80;99.00
41756;DHT22;27435;48.480;9.258;2022-10-15T09:37:17;17.70;99.00
41756;DHT22;27435;48.480;9.258;2022-10-15T09:42:33;17.70;99.00
41756;DHT22;27435;48.480;9.258;2022-10-15T09:45:03;17.80;98.90
41756;DHT22;27435;48.480;9.258;2022-10-15T09:47:33;17.70;99.00
41756;DHT22;27435;48.480;9.258;2022-10-15T09:49:59;17.50;99.00
41756;DHT22;27435;48.480;9.258;2022-10-15T09:55:34;17.50;99.00
41756;DHT22;27435;48.480;9.258;2022-10-15T09:58:16;17.40;99.00
41756;DHT22;27435;48.480;9.258;2022-10-15T10:01:00;17.50;99.00
41756;DHT22;27435;48.480;9.258;2022-10-15T10:03:29;17.50;98.90
41756;DHT22;27435;48.480;9.258;2022-10-15T10:06:13;17.50;98.90
41756;DHT22;27435;48.480;9.258;2022-10-15T10:11:12;17.40;98.70
41756;DHT22;27435;48.480;9.258;2022-10-15T10:13:44;17.40;98.70
41756;DHT22;27435;48.480;9.258;2022-10-15T10:16:16;17.40;98.60
41756;DHT22;27435;48.480;9.258;2022-10-15T10:18:42;17.40;99.00
41756;DHT22;27435;48.480;9.258;2022-10-15T10:21:29;17.70;99.00
41756;DHT22;27435;48.480;9.258;2022-10-15T10:23:55;17.90;96.80
41756;DHT22;27435;48.480;9.258;2022-10-15T10:26:24;17.90;95.80
41756;DHT22;27435;48.480;9.258;2022-10-15T10:28:52;17.80;96.30
41756;DHT22;27435;48.480;9.258;2022-10-15T10:31:29;17.80;97.40
41756;DHT22;27435;48.480;9.258;2022-10-15T10:33:59;17.90;96.80
41756;DHT22;27435;48.480;9.258;2022-10-15T10:36:26;17.80;96.50
41756;DHT22;27435;48.480;9.258;2022-10-15T10:44:27;18.20;94.20
41756;DHT22;27435;48.480;9.258;2022-10-15T10:47:14;18.30;94.10
41756;DHT22;27435;48.480;9.258;2022-10-15T10:49:41;18.30;94.30
41756;DHT22;27435;48.480;9.258;2022-10-15T10:52:32;18.10;94.80
41756;DHT22;27435;48.480;9.258;2022-10-15T10:55:05;18.00;95.20
41756;DHT22;27435;48.480;9.258;2022-10-15T10:57:48;18.10;95.60
41756;DHT22;27435;48.480;9.258;2022-10-15T11:01:02;18.20;94.30
41756;DHT22;27435;48.480;9.258;2022-10-15T11:03:04;18.30;94.90
41756;DHT22;27435;48.480;9.258;2022-10-15T11:05:33;18.40;95.60
41756;DHT22;27435;48.480;9.258;2022-10-15T11:08:19;18.50;93.90
41756;DHT22;27435;48.480;9.258;2022-10-15T11:13:46;18.20;94.50
41756;DHT22;27435;48.480;9.258;2022-10-15T11:24:26;18.00;95.80
41756;DHT22;27435;48.480;9.258;2022-10-15T11:35:50;18.10;95.30
41756;DHT22;27435;48.480;9.258;2022-10-15T11:38:43;18.10;94.60
41756;DHT22;27435;48.480;9.258;2022-10-15T11:41:42;18.30;93.30
41756;DHT22;27435;48.480;9.258;2022-10-15T11:47:19;18.20;93.90
41756;DHT22;27435;48.480;9.258;2022-10-15T11:49:54;18.00;93.80
41756;DHT22;27435;48.480;9.258;2022-10-15T11:52:59;18.00;94.40
41756;DHT22;27435;48.480;9.258;2022-10-15T11:58:20;18.50;93.50
41756;DHT22;27435;48.480;9.258;2022-10-15T12:00:55;18.90;93.00
41756;DHT22;27435;48.480;9.258;2022-10-15T12:03:25;18.90;90.50
41756;DHT22;27435;48.480;9.258;2022-10-15T12:05:54;18.90;90.40
41756;DHT22;27435;48.480;9.258;2022-10-15T12:08:22;19.10;89.80
41756;DHT22;27435;48.480;9.258;2022-10-15T12:21:39;19.30;89.60
41756;DHT22;27435;48.480;9.258;2022-10-15T12:29:44;20.20;85.70
41756;DHT22;27435;48.480;9.258;2022-10-15T12:32:27;20.10;85.20
41756;DHT22;27435;48.480;9.258;2022-10-15T12:34:58;19.50;86.70
41756;DHT22;27435;48.480;9.258;2022-10-15T12:37:31;19.50;87.50
41756;DHT22;27435;48.480;9.258;2022-10-15T12:40:06;19.60;87.10
41756;DHT22;27435;48.480;9.258;2022-10-15T12:45:36;19.30;87.90
41756;DHT22;27435;48.480;9.258;2022-10-15T12:50:33;19.50;89.00
41756;DHT22;27435;48.480;9.258;2022-10-15T12:53:01;19.60;87.70
41756;DHT22;27435;48.480;9.258;2022-10-15T12:57:55;19.20;87.90
41756;DHT22;27435;48.480;9.258;2022-10-15T13:00:28;19.00;88.80
41756;DHT22;27435;48.480;9.258;2022-10-15T13:02:56;19.10;89.30
41756;DHT22;27435;48.480;9.258;2022-10-15T13:05:31;19.20;89.20
41756;DHT22;27435;48.480;9.258;2022-10-15T13:07:59;19.20;89.70
41756;DHT22;27435;48.480;9.258;2022-10-15T13:13:20;19.20;90.10
41756;DHT22;27435;48.480;9.258;2022-10-15T13:15:50;19.30;90.60
41756;DHT22;27435;48.480;9.258;2022-10-15T13:18:16;19.20;89.40
41756;DHT22;27435;48.480;9.258;2022-10-15T13:20:44;19.20;89.00
41756;DHT22;27435;48.480;9.258;2022-10-15T13:23:32;19.20;89.70
41756;DHT22;27435;48.480;9.258;2022-10-15T13:26:22;19.30;88.40
41756;DHT22;27435;48.480;9.258;2022-10-15T13:28:50;19.10;88.80
41756;DHT22;27435;48.480;9.258;2022-10-15T13:31:23;19.00;89.20
41756;DHT22;27435;48.480;9.258;2022-10-15T13:33:52;18.90;89.10
41756;DHT22;27435;48.480;9.258;2022-10-15T13:36:32;18.80;89.90
41756;DHT22;27435;48.480;9.258;2022-10-15T13:39:04;18.90;90.20
41756;DHT22;27435;48.480;9.258;2022-10-15T13:41:33;19.10;90.40
41756;DHT22;27435;48.480;9.258;2022-10-15T13:44:00;19.00;89.60
41756;DHT22;27435;48.480;9.258;2022-10-15T13:46:30;19.00;89.60
41756;DHT22;27435;48.480;9.258;2022-10-15T13:49:00;19.00;89.90
41756;DHT22;27435;48.480;9.258;2022-10-15T13:51:33;18.80;92.30
41756;DHT22;27435;48.480;9.258;2022-10-15T13:54:00;18.50;94.60
41756;DHT22;27435;48.480;9.258;2022-10-15T13:56:31;18.40;95.70
41756;DHT22;27435;48.480;9.258;2022-10-15T13:58:58;18.30;97.20
41756;DHT22;27435;48.480;9.258;2022-10-15T14:01:25;18.30;96.10
41756;DHT22;27435;48.480;9.258;2022-10-15T14:03:53;18.40;95.80
41756;DHT22;27435;48.480;9.258;2022-10-15T14:08:47;18.30;96.00
41756;DHT22;27435;48.480;9.258;2022-10-15T14:11:13;18.20;94.90
41756;DHT22;27435;48.480;9.258;2022-10-15T14:13:47;18.20;95.90
41756;DHT22;27435;48.480;9.258;2022-10-15T14:16:32;18.20;96.10
41756;DHT22;27435;48.480;9.258;2022-10-15T14:19:10;18.20;95.20
41756;DHT22;27435;48.480;9.258;2022-10-15T14:21:36;18.10;95.40
41756;DHT22;27435;48.480;9.258;2022-10-15T14:24:14;18.10;95.60
41756;DHT22;27435;48.480;9.258;2022-10-15T14:26:41;18.10;96.10
41756;DHT22;27435;48.480;9.258;2022-10-15T14:29:18;18.20;96.20
41756;DHT22;27435;48.480;9.258;2022-10-15T14:31:48;18.30;95.50
41756;DHT22;27435;48.480;9.258;2022-10-15T14:36:57;18.40;94.90
41756;DHT22;27435;48.480;9.258;2022-10-15T14:39:32;18.40;94.80
41756;DHT22;27435;48.480;9.258;2022-10-15T14:42:26;18.40;95.10
41756;DHT22;27435;48.480;9.258;2022-10-15T14:44:52;18.30;94.80
41756;DHT22;27435;48.480;9.258;2022-10-15T14:47:24;18.30;94.70
41756;DHT22;27435;48.480;9.258;2022-10-15T14:49:53;18.30;94.90
41756;DHT22;27435;48.480;9.258;2022-10-15T14:52:20;18.40;94.60
41756;DHT22;27435;48.480;9.258;2022-10-15T14:57:45;18.30;94.20
41756;DHT22;27435;48.480;9.258;2022-10-15T15:00:30;18.30;94.90
41756;DHT22;27435;48.480;9.258;2022-10-15T15:02:58;18.30;95.20
41756;DHT22;27435;48.480;9.258;2022-10-15T15:05:27;18.40;94.90
41756;DHT22;27435;48.480;9.258;2022-10-15T15:07:54;18.40;94.90
41756;DHT22;27435;48.480;9.258;2022-10-15T15:10:23;18.70;94.60
41756;DHT22;27435;48.480;9.258;2022-10-15T15:12:51;18.80;93.30
41756;DHT22;27435;48.480;9.258;2022-10-15T15:15:20;18.80;93.40
41756;DHT22;27435;48.480;9.258;2022-10-15T15:17:46;18.90;93.30
41756;DHT22;27435;48.480;9.258;2022-10-15T15:20:13;18.70;92.70
41756;DHT22;27435;48.480;9.258;2022-10-15T15:22:40;18.60;93.70
41756;DHT22;27435;48.480;9.258;2022-10-15T15:25:14;18.40;94.60
41756;DHT22;27435;48.480;9.258;2022-10-15T15:27:40;18.40;95.40
41756;DHT22;27435;48.480;9.258;2022-10-15T15:30:12;18.50;95.30
41756;DHT22;27435;48.480;9.258;2022-10-15T15:32:38;18.80;93.90
41756;DHT22;27435;48.480;9.258;2022-10-15T15:35:23;19.30;91.60
41756;DHT22;27435;48.480;9.258;2022-10-15T15:37:51;19.90;90.00
41756;DHT22;27435;48.480;9.258;2022-10-15T15:40:17;19.90;88.50
41756;DHT22;27435;48.480;9.258;2022-10-15T15:42:43;20.00;88.60
41756;DHT22;27435;48.480;9.258;2022-10-15T15:45:17;19.40;90.70
41756;DHT22;27435;48.480;9.258;2022-10-15T15:47:43;19.10;92.30
41756;DHT22;27435;48.480;9.258;2022-10-15T15:50:09;18.90;92.80
41756;DHT22;27435;48.480;9.258;2022-10-15T15:52:34;18.80;93.90
41756;DHT22;27435;48.480;9.258;2022-10-15T15:55:00;18.80;94.30
41756;DHT22;27435;48.480;9.258;2022-10-15T15:57:25;19.20;93.00
41756;DHT22;27435;48.480;9.258;2022-10-15T15:59:51;19.50;91.40
41756;DHT22;27435;48.480;9.258;2022-10-15T16:02:16;19.10;92.10
41756;DHT22;27435;48.480;9.258;2022-10-15T16:04:42;19.00;93.20
41756;DHT22;27435;48.480;9.258;2022-10-15T16:07:09;19.10;92.90
41756;DHT22;27435;48.480;9.258;2022-10-15T16:09:35;19.10;92.40
41756;DHT22;27435;48.480;9.258;2022-10-15T16:12:01;18.90;92.70
41756;DHT22;27435;48.480;9.258;2022-10-15T16:14:26;18.70;93.60
41756;DHT22;27435;48.480;9.258;2022-10-15T16:16:52;18.60;94.60
41756;DHT22;27435;48.480;9.258;2022-10-15T16:19:18;18.50;95.10
41756;DHT22;27435;48.480;9.258;2022-10-15T16:21:44;18.40;95.80
41756;DHT22;27435;48.480;9.258;2022-10-15T16:24:09;18.50;96.10
41756;DHT22;27435;48.480;9.258;2022-10-15T16:26:35;18.30;95.70
41756;DHT22;27435;48.480;9.258;2022-10-15T16:29:01;18.10;95.80
41756;DHT22;27435;48.480;9.258;2022-10-15T16:31:27;17.90;96.30
41756;DHT22;27435;48.480;9.258;2022-10-15T16:33:57;17.70;96.60
41756;DHT22;27435;48.480;9.258;2022-10-15T16:36:23;17.50;97.60
41756;DHT22;27435;48.480;9.258;2022-10-15T16:38:49;17.50;98.20
41756;DHT22;27435;48.480;9.258;2022-10-15T16:41:15;17.40;98.70
41756;DHT22;27435;48.480;9.258;2022-10-15T16:43:43;17.40;99.00
41756;DHT22;27435;48.480;9.258;2022-10-15T16:46:09;17.40;99.00
41756;DHT22;27435;48.480;9.258;2022-10-15T16:48:35;17.50;98.70
41756;DHT22;27435;48.480;9.258;2022-10-15T16:51:02;17.60;98.70
41756;DHT22;27435;48.480;9.258;2022-10-15T16:53:30;17.80;97.50
41756;DHT22;27435;48.480;9.258;2022-10-15T16:56:22;17.70;98.00
41756;DHT22;27435;48.480;9.258;2022-10-15T16:58:46;17.60;97.90
41756;DHT22;27435;48.480;9.258;2022-10-15T17:01:21;17.40;98.30
41756;DHT22;27435;48.480;9.258;2022-10-15T17:03:47;17.40;98.40
41756;DHT22;27435;48.480;9.258;2022-10-15T17:06:15;17.50;98.00
41756;DHT22;27435;48.480;9.258;2022-10-15T17:08:44;17.40;98.50
41756;DHT22;27435;48.480;9.258;2022-10-15T17:11:13;17.30;99.00
41756;DHT22;27435;48.480;9.258;2022-10-15T17:13:39;17.20;99.00
41756;DHT22;27435;48.480;9.258;2022-10-15T17:18:40;17.00;99.00
41756;DHT22;27435;48.480;9.258;2022-10-15T17:21:08;16.90;99.00
41756;DHT22;27435;48.480;9.258;2022-10-15T17:23:35;16.90;99.00
41756;DHT22;27435;48.480;9.258;2022-10-15T17:26:12;16.80;99.00
41756;DHT22;27435;48.480;9.258;2022-10-15T17:28:38;16.80;99.00
41756;DHT22;27435;48.480;9.258;2022-10-15T17:31:10;16.70;99.00
41756;DHT22;27435;48.480;9.258;2022-10-15T17:33:37;16.60;99.00
41756;DHT22;27435;48.480;9.258;2022-10-15T17:36:04;16.60;99.00
41756;DHT22;27435;48.480;9.258;2022-10-15T17:38:30;16.60;99.00
41756;DHT22;27435;48.480;9.258;2022-10-15T17:40:56;16.70;99.00